NCAR-RAP Real-Time Weather Data

Output produced by METARs form (24 July 2017  08:49 UTC)
found at http://weather.rap.ucar.edu/surface/
 
Conditions at: KMCO observed 24 July 2017  07:53 UTC
Temperature: 25.6°C (78°F)
Dewpoint: 24.4°C (76°F) [RH = 93%]
Pressure (altimeter): 30.01 inches Hg (1016.3 mb)
[Sea-level pressure: 1016.1 mb]
Winds: from the SW (230 degrees) at 5 MPH (4 knots; 2.1 m/s)
Visibility: 10 or more miles (16+ km)
Ceiling: 21000 feet AGL
Clouds: scattered clouds at 18000 feet AGL
broken clouds at 21000 feet AGL
overcast cloud deck at 25000 feet AGL
Present Weather: no significant weather observed at this time
KMCO 240753Z 23004KT 10SM SCT180 BKN210 OVC250 26/24 A3001 RMK AO2 SLP161 T02560244

Conditions at: KMCO observed 24 July 2017  06:53 UTC
Temperature: 25.0°C (77°F)
Dewpoint: 25.0°C (77°F) [RH = 100%]
Pressure (altimeter): 30.02 inches Hg (1016.7 mb)
[Sea-level pressure: 1016.5 mb]
Winds: from the S (190 degrees) at 3 MPH (3 knots; 1.6 m/s)
Visibility: 10 or more miles (16+ km)
Ceiling: 19000 feet AGL
Clouds: scattered clouds at 14000 feet AGL
broken clouds at 19000 feet AGL
overcast cloud deck at 25000 feet AGL
Present Weather: no significant weather observed at this time
KMCO 240653Z 19003KT 10SM SCT140 BKN190 OVC250 25/25 A3002 RMK AO2 SLP165 T02500250

Conditions at: KMCO observed 24 July 2017  05:53 UTC
Temperature: 25.0°C (77°F)
Dewpoint: 25.0°C (77°F) [RH = 100%]
Pressure (altimeter): 30.04 inches Hg (1017.4 mb)
[Sea-level pressure: 1017.0 mb]
Winds: calm
Visibility: 10 or more miles (16+ km)
Ceiling: 18000 feet AGL
Clouds: broken clouds at 18000 feet AGL
overcast cloud deck at 25000 feet AGL
Present Weather: no significant weather observed at this time
KMCO 240553Z 00000KT 10SM BKN180 OVC250 25/25 A3004 RMK AO2 SLP170 60000 T02500250 10267 20250 58002

Conditions at: KMCO observed 24 July 2017  04:53 UTC
Temperature: 25.0°C (77°F)
Dewpoint: 25.0°C (77°F) [RH = 100%]
Pressure (altimeter): 30.05 inches Hg (1017.7 mb)
[Sea-level pressure: 1017.4 mb]
Winds: from the SSE (160 degrees) at 5 MPH (4 knots; 2.1 m/s)
Visibility: 10 or more miles (16+ km)
Ceiling: 16000 feet AGL
Clouds: few clouds at 2000 feet AGL
broken clouds at 16000 feet AGL
overcast cloud deck at 25000 feet AGL
Present Weather: no significant weather observed at this time
KMCO 240453Z 16004KT 10SM FEW020 BKN160 OVC250 25/25 A3005 RMK AO2 SLP174 T02500250 403000228

Conditions at: KMCO observed 24 July 2017  03:53 UTC
Temperature: 25.6°C (78°F)
Dewpoint: 25.0°C (77°F) [RH = 96%]
Pressure (altimeter): 30.06 inches Hg (1018.0 mb)
[Sea-level pressure: 1017.7 mb]
Winds: from the SSE (160 degrees) at 3 MPH (3 knots; 1.6 m/s)
Visibility: 10 or more miles (16+ km)
Ceiling: 16000 feet AGL
Clouds: scattered clouds at 2000 feet AGL
broken clouds at 16000 feet AGL
overcast cloud deck at 25000 feet AGL
Present Weather: no significant weather observed at this time
KMCO 240353Z 16003KT 10SM SCT020 BKN160 OVC250 26/25 A3006 RMK AO2 SLP177 T02560250

Conditions at: KMCO observed 24 July 2017  02:53 UTC
Temperature: 25.6°C (78°F)
Dewpoint: 24.4°C (76°F) [RH = 93%]
Pressure (altimeter): 30.04 inches Hg (1017.4 mb)
[Sea-level pressure: 1017.2 mb]
Winds: from the ESE (110 degrees) at 3 MPH (3 knots; 1.6 m/s)
Visibility: 10 or more miles (16+ km)
Ceiling: 19000 feet AGL
Clouds: few clouds at 1800 feet AGL
broken clouds at 19000 feet AGL
overcast cloud deck at 30000 feet AGL
Present Weather: no significant weather observed at this time
KMCO 240253Z 11003KT 10SM FEW018 BKN190 OVC300 26/24 A3004 RMK AO2 SLP172 60000 T02560244 53018

Conditions at: KMCO observed 24 July 2017  01:53 UTC
Temperature: 26.7°C (80°F)
Dewpoint: 24.4°C (76°F) [RH = 87%]
Pressure (altimeter): 30.02 inches Hg (1016.7 mb)
[Sea-level pressure: 1016.3 mb]
Winds: calm
Visibility: 10 or more miles (16+ km)
Ceiling: at least 12,000 feet AGL
Clouds: scattered clouds at 25000 feet AGL
Present Weather: no significant weather observed at this time
KMCO 240153Z 00000KT 10SM SCT250 27/24 A3002 RMK AO2 RAE51 SLP163 P0000 T02670244

Conditions at: KMCO observed 24 July 2017  00:53 UTC
Temperature: 26.1°C (79°F)
Dewpoint: 24.4°C (76°F) [RH = 90%]
Pressure (altimeter): 29.99 inches Hg (1015.7 mb)
[Sea-level pressure: 1015.5 mb]
Winds: calm
Visibility: 10 or more miles (16+ km)
Ceiling: 25000 feet AGL
Clouds: overcast cloud deck at 25000 feet AGL
Present Weather: -RA  (light rain)
KMCO 240053Z 00000KT 10SM -RA OVC250 26/24 A2999 RMK AO2 RAB51 SLP155 P0000 T02610244

Conditions at: KMCO observed 23 July 2017  23:53 UTC
Temperature: 26.7°C (80°F)
Dewpoint: 23.3°C (74°F) [RH = 82%]
Pressure (altimeter): 29.99 inches Hg (1015.7 mb)
[Sea-level pressure: 1015.3 mb]
Winds: from the S (170 degrees) at 7 MPH (6 knots; 3.1 m/s)
Visibility: 10 or more miles (16+ km)
Ceiling: 12000 feet AGL
Clouds: broken clouds at 12000 feet AGL
broken clouds at 25000 feet AGL
Present Weather: no significant weather observed at this time
KMCO 232353Z 17006KT 10SM BKN120 BKN250 27/23 A2999 RMK AO2 SLP153 T02670233 10283 20267 56015

Conditions at: KMCO observed 23 July 2017  22:53 UTC
Temperature: 27.8°C (82°F)
Dewpoint: 22.2°C (72°F) [RH = 72%]
Pressure (altimeter): 29.99 inches Hg (1015.7 mb)
[Sea-level pressure: 1015.5 mb]
Winds: from the S (190 degrees) at 6 MPH (5 knots; 2.6 m/s)
Visibility: 10 or more miles (16+ km)
Ceiling: 12000 feet AGL
Clouds: broken clouds at 12000 feet AGL
overcast cloud deck at 25000 feet AGL
Present Weather: no significant weather observed at this time
KMCO 232253Z 19005KT 10SM BKN120 OVC250 28/22 A2999 RMK AO2 SLP155 T02780222

Conditions at: KMCO observed 23 July 2017  21:53 UTC
Temperature: 27.8°C (82°F)
Dewpoint: 21.7°C (71°F) [RH = 69%]
Pressure (altimeter): 30.02 inches Hg (1016.7 mb)
[Sea-level pressure: 1016.4 mb]
Winds: from the SW (230 degrees) at 6 MPH (5 knots; 2.6 m/s)
Visibility: 10 or more miles (16+ km)
Ceiling: 12000 feet AGL
Clouds: broken clouds at 12000 feet AGL
overcast cloud deck at 25000 feet AGL
Present Weather: no significant weather observed at this time
KMCO 232153Z 23005KT 10SM BKN120 OVC250 28/22 A3002 RMK AO2 SLP164 T02780217

Conditions at: KMCO observed 23 July 2017  20:53 UTC
Temperature: 27.8°C (82°F)
Dewpoint: 21.7°C (71°F) [RH = 69%]
Pressure (altimeter): 30.03 inches Hg (1017.0 mb)
[Sea-level pressure: 1016.9 mb]
Winds: from the W (260 degrees) at 6 MPH (5 knots; 2.6 m/s)
Visibility: 10 or more miles (16+ km)
Ceiling: 12000 feet AGL
Clouds: broken clouds at 12000 feet AGL
overcast cloud deck at 20000 feet AGL
Present Weather: no significant weather observed at this time
KMCO 232053Z 26005KT 10SM BKN120 OVC200 28/22 A3003 RMK AO2 SLP169 T02780217 58012

Conditions at: KMCO observed 23 July 2017  19:53 UTC
Temperature: 27.8°C (82°F)
Dewpoint: 21.1°C (70°F) [RH = 67%]
Pressure (altimeter): 30.05 inches Hg (1017.7 mb)
[Sea-level pressure: 1017.2 mb]
Winds: from the SW (220 degrees) at 6 MPH (5 knots; 2.6 m/s)
Visibility: 10 or more miles (16+ km)
Ceiling: 12000 feet AGL
Clouds: few clouds at 4000 feet AGL
broken clouds at 12000 feet AGL
overcast cloud deck at 20000 feet AGL
Present Weather: no significant weather observed at this time
KMCO 231953Z 22005KT 10SM FEW040 BKN120 OVC200 28/21 A3005 RMK AO2 LTG DSNT SE SLP172 T02780211

Conditions at: KMCO observed 23 July 2017  18:53 UTC
Temperature: 27.8°C (82°F)
Dewpoint: 21.7°C (71°F) [RH = 69%]
Pressure (altimeter): 30.06 inches Hg (1018.0 mb)
[Sea-level pressure: 1017.8 mb]
Winds: from the W (260 degrees) at 7 MPH (6 knots; 3.1 m/s)
Visibility: 10 or more miles (16+ km)
Ceiling: 12000 feet AGL
Clouds: few clouds at 4000 feet AGL
broken clouds at 12000 feet AGL
overcast cloud deck at 25000 feet AGL
Present Weather: no significant weather observed at this time
KMCO 231853Z 26006KT 10SM FEW040 BKN120 OVC250 28/22 A3006 RMK AO2 SLP178 T02780217

Conditions at: KMCO observed 23 July 2017  17:53 UTC
Temperature: 27.2°C (81°F)
Dewpoint: 22.2°C (72°F) [RH = 74%]
Pressure (altimeter): 30.07 inches Hg (1018.4 mb)
[Sea-level pressure: 1018.1 mb]
Winds: from the WNW (290 degrees) at 9 MPH (8 knots; 4.2 m/s)
Visibility: 10 or more miles (16+ km)
Ceiling: 25000 feet AGL
Clouds: few clouds at 4300 feet AGL
few clouds at 11000 feet AGL
scattered clouds at 17000 feet AGL
overcast cloud deck at 25000 feet AGL
Present Weather: no significant weather observed at this time
KMCO 231753Z 29008KT 10SM FEW043 FEW110 SCT170 OVC250 27/22 A3007 RMK AO2 LTG DSNT NE AND E RAB05E24 TSE30 SLP181 CB DSNT E MOV E P0000 60000 T02720222 10300 20239 50003

Conditions at: KMCO observed 23 July 2017  17:33 UTC
Temperature: 26.7°C (80°F)
Dewpoint: 21.7°C (71°F) [RH = 74%]
Pressure (altimeter): 30.07 inches Hg (1018.4 mb)
Winds: from the WNW (300 degrees) at 12 MPH (10 knots; 5.2 m/s)
Visibility: 10 or more miles (16+ km)
Ceiling: 25000 feet AGL
Clouds: few clouds at 4300 feet AGL
scattered clouds at 11000 feet AGL
overcast cloud deck at 25000 feet AGL
Present Weather: no significant weather observed at this time
KMCO 231733Z 30010KT 10SM FEW043 SCT110 OVC250 27/22 A3007 RMK AO2 LTG DSNT NE-SE RAB05E24 TSE30 TS MOV E CB DSNT N-E MOV E P0000 T02670217

Conditions at: KMCO observed 23 July 2017  16:53 UTC
Temperature: 27.2°C (81°F)
Dewpoint: 23.9°C (75°F) [RH = 82%]
Pressure (altimeter): 30.08 inches Hg (1018.7 mb)
[Sea-level pressure: 1018.3 mb]
Winds: from the W (270 degrees) at 15 MPH (13 knots; 6.8 m/s)
Visibility: 10 or more miles (16+ km)
Ceiling: 8000 feet AGL
Clouds: scattered clouds at 3300 feet AGL
scattered clouds at 4500 feet AGL
broken clouds at 8000 feet AGL
overcast cloud deck at 25000 feet AGL
Present Weather: TS  (thunderstorm)
KMCO 231653Z 27013KT 10SM TS SCT033CB SCT045 BKN080 OVC250 27/24 A3008 RMK AO2 LTG DSNT N AND E SLP183 TSB29 OCNL LTGICCG N-E TS N-E MOV NE VCSH N-E T02720239

Conditions at: KMCO observed 23 July 2017  16:29 UTC
Temperature: 28.9°C (84°F)
Dewpoint: 22.8°C (73°F) [RH = 70%]
Pressure (altimeter): 30.08 inches Hg (1018.7 mb)
Winds: from the WSW (250 degrees) at 14 MPH (12 knots; 6.2 m/s)
gusting to 22 MPH (19 knots; 9.9 m/s)
Visibility: 10 or more miles (16+ km)
Ceiling: 4500 feet AGL
Clouds: scattered clouds at 3300 feet AGL
broken clouds at 4500 feet AGL
broken clouds at 8000 feet AGL
overcast cloud deck at 25000 feet AGL
Present Weather: TS  (thunderstorm)
KMCO 231629Z COR 25012G19KT 10SM TS SCT033CB BKN045 BKN080 OVC250 29/23 A3008 RMK AO2 LTG DSNT N AND E TSB29 OCNL LTGICCG N E SW-NW TS N E SW-NW MOV NE VCSH N E SW-NW T02890228

Conditions at: KMCO observed 23 July 2017  15:53 UTC
Temperature: 28.9°C (84°F)
Dewpoint: 24.4°C (76°F) [RH = 77%]
Pressure (altimeter): 30.07 inches Hg (1018.4 mb)
[Sea-level pressure: 1018.0 mb]
Winds: from the SSW (210 degrees) at 9 MPH (8 knots; 4.2 m/s)
Visibility: 10 or more miles (16+ km)
Ceiling: 20000 feet AGL
Clouds: scattered clouds at 3300 feet AGL
scattered clouds at 8000 feet AGL
broken clouds at 20000 feet AGL
overcast cloud deck at 30000 feet AGL
Present Weather: no significant weather observed at this time
KMCO 231553Z 21008KT 10SM SCT033TCU SCT080 BKN200 OVC300 29/24 A3007 RMK AO2 LTG DSNT NW SLP180 TCU NW CB DSNT NW VCSH NW T02890244

Conditions at: KMCO observed 23 July 2017  14:53 UTC
Temperature: 28.9°C (84°F)
Dewpoint: 24.4°C (76°F) [RH = 77%]
Pressure (altimeter): 30.06 inches Hg (1018.0 mb)
[Sea-level pressure: 1017.8 mb]
Winds: from the SSW (200 degrees) at 9 MPH (8 knots; 4.2 m/s)
Visibility: 10 or more miles (16+ km)
Ceiling: 30000 feet AGL
Clouds: few clouds at 3500 feet AGL
few clouds at 11000 feet AGL
scattered clouds at 20000 feet AGL
broken clouds at 30000 feet AGL
Present Weather: no significant weather observed at this time
KMCO 231453Z 20008KT 10SM FEW035 FEW110 SCT200 BKN300 29/24 A3006 RMK AO2 SLP178 T02890244 50004

Conditions at: KMCO observed 23 July 2017  13:53 UTC
Temperature: 26.7°C (80°F)
Dewpoint: 23.9°C (75°F) [RH = 85%]
Pressure (altimeter): 30.06 inches Hg (1018.0 mb)
[Sea-level pressure: 1017.9 mb]
Winds: from the S (190 degrees) at 7 MPH (6 knots; 3.1 m/s)
Visibility: 10 or more miles (16+ km)
Ceiling: 20000 feet AGL
Clouds: few clouds at 3500 feet AGL
few clouds at 11000 feet AGL
broken clouds at 20000 feet AGL
Present Weather: no significant weather observed at this time
KMCO 231353Z 19006KT 10SM FEW035 FEW110 BKN200 27/24 A3006 RMK AO2 SLP179 CB DSNT NW T02670239

Conditions at: KMCO observed 23 July 2017  12:53 UTC
Temperature: 25.0°C (77°F)
Dewpoint: 24.4°C (76°F) [RH = 96%]
Pressure (altimeter): 30.06 inches Hg (1018.0 mb)
[Sea-level pressure: 1017.9 mb]
Winds: from the SSW (200 degrees) at 5 MPH (4 knots; 2.1 m/s)
Visibility: 10 or more miles (16+ km)
Ceiling: 20000 feet AGL
Clouds: scattered clouds at 15000 feet AGL
overcast cloud deck at 20000 feet AGL
Present Weather: no significant weather observed at this time
KMCO 231253Z 20004KT 10SM SCT150 OVC200 25/24 A3006 RMK AO2 SLP179 T02500244

Conditions at: KMCO observed 23 July 2017  11:53 UTC
Temperature: 23.9°C (75°F)
Dewpoint: 23.9°C (75°F) [RH = 100%]
Pressure (altimeter): 30.05 inches Hg (1017.7 mb)
[Sea-level pressure: 1017.4 mb]
Winds: calm
Visibility: 10 or more miles (16+ km)
Ceiling: 15000 feet AGL
Clouds: broken clouds at 15000 feet AGL
overcast cloud deck at 25000 feet AGL
Present Weather: no significant weather observed at this time
KMCO 231153Z 00000KT 10SM BKN150 OVC250 24/24 A3005 RMK AO2 SLP174 70037 T02390239 10239 20228 53010

Conditions at: KMCO observed 23 July 2017  10:53 UTC
Temperature: 23.3°C (74°F)
Dewpoint: 23.3°C (74°F) [RH = 100%]
Pressure (altimeter): 30.04 inches Hg (1017.4 mb)
[Sea-level pressure: 1016.9 mb]
Winds: from the SSE (160 degrees) at 5 MPH (4 knots; 2.1 m/s)
Visibility: 10 or more miles (16+ km)
Ceiling: 16000 feet AGL
Clouds: broken clouds at 16000 feet AGL
broken clouds at 25000 feet AGL
Present Weather: no significant weather observed at this time
KMCO 231053Z 16004KT 10SM BKN160 BKN250 23/23 A3004 RMK AO2 SLP169 T02330233

Conditions at: KMCO observed 23 July 2017  09:53 UTC
Temperature: 23.3°C (74°F)
Dewpoint: 23.3°C (74°F) [RH = 100%]
Pressure (altimeter): 30.03 inches Hg (1017.0 mb)
[Sea-level pressure: 1016.7 mb]
Winds: calm
Visibility: 10 or more miles (16+ km)
Ceiling: 14000 feet AGL
Clouds: broken clouds at 14000 feet AGL
overcast cloud deck at 20000 feet AGL
Present Weather: no significant weather observed at this time
KMCO 230953Z 00000KT 10SM BKN140 OVC200 23/23 A3003 RMK AO2 SLP167 T02330233

Conditions at: KMCO observed 23 July 2017  08:53 UTC
Temperature: 23.3°C (74°F)
Dewpoint: 23.3°C (74°F) [RH = 100%]
Pressure (altimeter): 30.02 inches Hg (1016.7 mb)
[Sea-level pressure: 1016.4 mb]
Winds: from the SSE (160 degrees) at 5 MPH (4 knots; 2.1 m/s)
Visibility: 10 or more miles (16+ km)
Ceiling: 20000 feet AGL
Clouds: scattered clouds at 14000 feet AGL
broken clouds at 20000 feet AGL
Present Weather: no significant weather observed at this time
KMCO 230853Z 16004KT 10SM SCT140 BKN200 23/23 A3002 RMK AO2 SLP164 T02330233 56013

Conditions at: KMCO observed 23 July 2017  07:53 UTC
Temperature: 23.3°C (74°F)
Dewpoint: 23.3°C (74°F) [RH = 100%]
Pressure (altimeter): 30.03 inches Hg (1017.0 mb)
[Sea-level pressure: 1016.7 mb]
Winds: from the S (190 degrees) at 6 MPH (5 knots; 2.6 m/s)
Visibility: 10 or more miles (16+ km)
Ceiling: 14000 feet AGL
Clouds: broken clouds at 14000 feet AGL
overcast cloud deck at 20000 feet AGL
Present Weather: no significant weather observed at this time
KMCO 230753Z 19005KT 10SM BKN140 OVC200 23/23 A3003 RMK AO2 SLP167 T02330233

Conditions at: KMCO observed 23 July 2017  06:53 UTC
Temperature: 23.3°C (74°F)
Dewpoint: 23.3°C (74°F) [RH = 100%]
Pressure (altimeter): 30.05 inches Hg (1017.7 mb)
[Sea-level pressure: 1017.3 mb]
Winds: from the S (170 degrees) at 3 MPH (3 knots; 1.6 m/s)
Visibility: 10 or more miles (16+ km)
Ceiling: 14000 feet AGL
Clouds: broken clouds at 14000 feet AGL
overcast cloud deck at 20000 feet AGL
Present Weather: no significant weather observed at this time
KMCO 230653Z 17003KT 10SM BKN140 OVC200 23/23 A3005 RMK AO2 SLP173 T02330233

Conditions at: KMCO observed 23 July 2017  05:53 UTC
Temperature: 23.9°C (75°F)
Dewpoint: 23.9°C (75°F) [RH = 100%]
Pressure (altimeter): 30.06 inches Hg (1018.0 mb)
[Sea-level pressure: 1017.7 mb]
Winds: from the S (190 degrees) at 5 MPH (4 knots; 2.1 m/s)
Visibility: 10 or more miles (16+ km)
Ceiling: 14000 feet AGL
Clouds: broken clouds at 14000 feet AGL
overcast cloud deck at 20000 feet AGL
Present Weather: no significant weather observed at this time
KMCO 230553Z COR 19004KT 10SM BKN140 OVC200 24/24 A3006 RMK AO2 SLP177 60000 T02390239 10244 20233 58001

Conditions at: KMCO observed 23 July 2017  04:53 UTC
Temperature: 23.9°C (75°F)
Dewpoint: 23.9°C (75°F) [RH = 100%]
Pressure (altimeter): 30.07 inches Hg (1018.4 mb)
[Sea-level pressure: 1018.0 mb]
Winds: calm
Visibility: 10 or more miles (16+ km)
Ceiling: 14000 feet AGL
Clouds: broken clouds at 14000 feet AGL
overcast cloud deck at 20000 feet AGL
Present Weather: no significant weather observed at this time
KMCO 230453Z 00000KT 10SM BKN140 OVC200 24/24 A3007 RMK AO2 SLP180 T02390239 403220222

Conditions at: KMCO observed 23 July 2017  03:53 UTC
Temperature: 23.9°C (75°F)
Dewpoint: 23.9°C (75°F) [RH = 100%]
Pressure (altimeter): 30.07 inches Hg (1018.4 mb)
[Sea-level pressure: 1018.0 mb]
Winds: from the SSE (160 degrees) at 3 MPH (3 knots; 1.6 m/s)
Visibility: 10 or more miles (16+ km)
Ceiling: 20000 feet AGL
Clouds: overcast cloud deck at 20000 feet AGL
Present Weather: no significant weather observed at this time
KMCO 230353Z 16003KT 10SM OVC200 24/24 A3007 RMK AO2 RAB10E44 SLP180 P0000 T02390239

Conditions at: KMCO observed 23 July 2017  02:53 UTC
Temperature: 23.3°C (74°F)
Dewpoint: 23.3°C (74°F) [RH = 100%]
Pressure (altimeter): 30.06 inches Hg (1018.0 mb)
[Sea-level pressure: 1017.8 mb]
Winds: from the SSE (150 degrees) at 5 MPH (4 knots; 2.1 m/s)
Visibility: 10 or more miles (16+ km)
Ceiling: 20000 feet AGL
Clouds: overcast cloud deck at 20000 feet AGL
Present Weather: no significant weather observed at this time
KMCO 230253Z 15004KT 10SM OVC200 23/23 A3006 RMK AO2 SLP178 60000 T02330233 53004

Conditions at: KMCO observed 23 July 2017  01:53 UTC
Temperature: 23.9°C (75°F)
Dewpoint: 23.3°C (74°F) [RH = 96%]
Pressure (altimeter): 30.05 inches Hg (1017.7 mb)
[Sea-level pressure: 1017.3 mb]
Winds: from the S (190 degrees) at 3 MPH (3 knots; 1.6 m/s)
Visibility: 10 or more miles (16+ km)
Ceiling: 20000 feet AGL
Clouds: overcast cloud deck at 20000 feet AGL
Present Weather: no significant weather observed at this time
KMCO 230153Z 19003KT 10SM OVC200 24/23 A3005 RMK AO2 RAB11E28 SLP173 P0000 T02390233

Conditions at: KMCO observed 23 July 2017  00:53 UTC
Temperature: 23.9°C (75°F)
Dewpoint: 23.3°C (74°F) [RH = 96%]
Pressure (altimeter): 30.05 inches Hg (1017.7 mb)
[Sea-level pressure: 1017.5 mb]
Winds: from the SSW (200 degrees) at 5 MPH (4 knots; 2.1 m/s)
Visibility: 10 or more miles (16+ km)
Ceiling: 20000 feet AGL
Clouds: few clouds at 1200 feet AGL
overcast cloud deck at 20000 feet AGL
Present Weather: no significant weather observed at this time
KMCO 230053Z 20004KT 10SM FEW012 OVC200 24/23 A3005 RMK AO2 SLP175 T02390233

Conditions at: KMCO observed 22 July 2017  23:53 UTC
Temperature: 24.4°C (76°F)
Dewpoint: 24.4°C (76°F) [RH = 100%]
Pressure (altimeter): 30.05 inches Hg (1017.7 mb)
[Sea-level pressure: 1017.4 mb]
Winds: from the SSE (160 degrees) at 13 MPH (11 knots; 5.7 m/s)
Visibility: 10 or more miles (16+ km)
Ceiling: 20000 feet AGL
Clouds: scattered clouds at 700 feet AGL
overcast cloud deck at 20000 feet AGL
Present Weather: no significant weather observed at this time
KMCO 222353Z 16011KT 10SM SCT007 OVC200 24/24 A3005 RMK AO2 RAE2256 SLP174 P0000 60037 T02440244 10261 20222 58012

Conditions at: KMCO observed 22 July 2017  22:53 UTC
Temperature: 25.0°C (77°F)
Dewpoint: 23.3°C (74°F) [RH = 90%]
Pressure (altimeter): 30.06 inches Hg (1018.0 mb)
[Sea-level pressure: 1017.9 mb]
Winds: from the E (80 degrees) at 5 MPH (4 knots; 2.1 m/s)
Visibility: 10 or more miles (16+ km)
Ceiling: 11000 feet AGL
Clouds: few clouds at 3200 feet AGL
broken clouds at 11000 feet AGL
Present Weather: -RA  (light rain)
KMCO 222253Z 08004KT 10SM -RA FEW032 BKN110 25/23 A3006 RMK AO2 RAB35 SLP179 P0000 T02500233

Conditions at: KMCO observed 22 July 2017  21:53 UTC
Temperature: 25.0°C (77°F)
Dewpoint: 23.3°C (74°F) [RH = 90%]
Pressure (altimeter): 30.07 inches Hg (1018.4 mb)
[Sea-level pressure: 1018.2 mb]
Winds: variable direction winds at 3 MPH (3 knots; 1.6 m/s)
Visibility: 10 or more miles (16+ km)
Ceiling: 20000 feet AGL
Clouds: few clouds at 4000 feet AGL
scattered clouds at 9000 feet AGL
broken clouds at 20000 feet AGL
Present Weather: no significant weather observed at this time
KMCO 222153Z VRB03KT 10SM FEW040 SCT090 BKN200 25/23 A3007 RMK AO2 SLP182 T02500233

Conditions at: KMCO observed 22 July 2017  20:53 UTC
Temperature: 25.0°C (77°F)
Dewpoint: 23.9°C (75°F) [RH = 94%]
Pressure (altimeter): 30.08 inches Hg (1018.7 mb)
[Sea-level pressure: 1018.5 mb]
Winds: from the E (100 degrees) at 5 MPH (4 knots; 2.1 m/s)
Visibility: 10 or more miles (16+ km)
Ceiling: 20000 feet AGL
Clouds: few clouds at 4000 feet AGL
scattered clouds at 8000 feet AGL
broken clouds at 20000 feet AGL
Present Weather: no significant weather observed at this time
KMCO 222053Z 10004KT 10SM FEW040 SCT080 BKN200 25/24 A3008 RMK AO2 LTG DSNT E AND SE RAE24 SLP185 P0000 60037 T02500239 55005

Conditions at: KMCO observed 22 July 2017  19:53 UTC
Temperature: 24.4°C (76°F)
Dewpoint: 22.8°C (73°F) [RH = 91%]
Pressure (altimeter): 30.07 inches Hg (1018.4 mb)
[Sea-level pressure: 1018.0 mb]
Winds: from the WNW (300 degrees) at 6 MPH (5 knots; 2.6 m/s)
Visibility: 10 or more miles (16+ km)
Ceiling: 10000 feet AGL
Clouds: few clouds at 5500 feet AGL
scattered clouds at 7000 feet AGL
overcast cloud deck at 10000 feet AGL
Present Weather: -RA  (light rain)
KMCO 221953Z 30005KT 10SM -RA FEW055 SCT070 OVC100 24/23 A3007 RMK AO2 LTG DSNT E AND SE RAE22B47 TSE22 SLP180 P0000 T02440228

Conditions at: KMCO observed 22 July 2017  19:27 UTC
Temperature: 23.3°C (74°F)
Dewpoint: 22.2°C (72°F) [RH = 94%]
Pressure (altimeter): 30.07 inches Hg (1018.4 mb)
Winds: from the W (260 degrees) at 3 MPH (3 knots; 1.6 m/s)
Visibility: 10 or more miles (16+ km)
Ceiling: 7500 feet AGL
Clouds: few clouds at 4500 feet AGL
broken clouds at 7500 feet AGL
overcast cloud deck at 10000 feet AGL
Present Weather: no significant weather observed at this time
KMCO 221927Z 26003KT 10SM FEW045 BKN075 OVC100 23/22 A3007 RMK AO2 LTG DSNT ALQDS RAE22 TSE22 TS DSIPTD CB DSNT NW P0000 T02330222

Conditions at: KMCO observed 22 July 2017  18:53 UTC
Temperature: 23.3°C (74°F)
Dewpoint: 21.1°C (70°F) [RH = 87%]
Pressure (altimeter): 30.07 inches Hg (1018.4 mb)
[Sea-level pressure: 1018.1 mb]
Winds: from the W (270 degrees) at 7 MPH (6 knots; 3.1 m/s)
Visibility: 10 or more miles (16+ km)
Ceiling: 8000 feet AGL
Clouds: few clouds at 3000 feet AGL
scattered clouds at 6000 feet AGL
broken clouds at 8000 feet AGL
Present Weather: -TSRA  (light rain associated with thunderstorm(s))
KMCO 221853Z COR 27006KT 10SM -TSRA FEW030CB SCT060 BKN080 23/21 A3007 RMK AO2 PK WND 28029/1756 WSHFT 1743 LTG DSNT ALQDS RAB1759 SLP181 OCNL LTGIC OHD TS OHD MOV NE P0037 T02330211

Conditions at: KMCO observed 22 July 2017  18:30 UTC
Temperature: 22.8°C (73°F)
Dewpoint: 21.7°C (71°F) [RH = 94%]
Pressure (altimeter): 30.10 inches Hg (1019.4 mb)
Winds: variable direction winds at 3 MPH (3 knots; 1.6 m/s)
Visibility: 4 miles (6 km)
Ceiling: 3500 feet AGL
Clouds: broken clouds at 3500 feet AGL
overcast cloud deck at 5000 feet AGL
Present Weather: TSRA BR  (rain associated with thunderstorm(s), mist)
KMCO 221830Z VRB03KT 4SM R35L/5000VP6000FT TSRA BR BKN035CB OVC050 23/22 A3010 RMK AO2 PK WND 28029/1756 WSHFT 1743 LTG DSNT ALQDS RAB1759 CONS LTGICCG ALQDS TS ALQDS MOV NE P0036 T02280217

Conditions at: KMCO observed 22 July 2017  18:25 UTC
Temperature: 22.2°C (72°F)
Dewpoint: 21.1°C (70°F) [RH = 93%]
Pressure (altimeter): 30.09 inches Hg (1019.0 mb)
Winds: from the WNW (290 degrees) at 8 MPH (7 knots; 3.6 m/s)
Visibility: 2.00 miles (3.22 km)
Ceiling: 3500 feet AGL
Clouds: scattered clouds at 2100 feet AGL
broken clouds at 3500 feet AGL
overcast cloud deck at 5000 feet AGL
Present Weather: TSRA BR  (rain associated with thunderstorm(s), mist)
KMCO 221825Z 29007KT 2SM R35L/3000VP6000FT TSRA BR SCT021 BKN035CB OVC050 22/21 A3009 RMK AO2 PK WND 28029/1756 WSHFT 1743 LTG DSNT ALQDS RAB1759 CONS LTGICCG ALQDS TS ALQDS MOV NE P0034 T02220211

Conditions at: KMCO observed 22 July 2017  18:17 UTC
Temperature: 22.2°C (72°F)
Dewpoint: 21.7°C (71°F) [RH = 97%]
Pressure (altimeter): 30.11 inches Hg (1019.7 mb)
Winds: from the W (280 degrees) at 13 MPH (11 knots; 5.7 m/s)
gusting to 28 MPH (24 knots; 12.5 m/s)
Visibility: 0.75 miles (1.21 km)
Ceiling: 3300 feet AGL
Clouds: broken clouds at 3300 feet AGL
overcast cloud deck at 5000 feet AGL
Present Weather: +TSRA BR  (heavy rain associated with thunderstorm(s), mist)
KMCO 221817Z 28011G24KT 3/4SM R35L/2000VP6000FT +TSRA BR BKN033CB OVC050 22/22 A3011 RMK AO2 PK WND 28029/1756 WSHFT 1743 LTG DSNT ALQDS RAB1759 CONS LTGICCG ALQDS TS ALQDS MOV NE P0017 T02220217

Conditions at: KMCO observed 22 July 2017  18:13 UTC
Temperature: 22.8°C (73°F)
Dewpoint: 21.7°C (71°F) [RH = 94%]
Pressure (altimeter): 30.11 inches Hg (1019.7 mb)
Winds: from the W (260 degrees) at 18 MPH (16 knots; 8.3 m/s)
gusting to 28 MPH (24 knots; 12.5 m/s)
Visibility: 1.00 miles (1.61 km)
Ceiling: 3300 feet AGL
Clouds: broken clouds at 3300 feet AGL
overcast cloud deck at 5000 feet AGL
Present Weather: +TSRA BR  (heavy rain associated with thunderstorm(s), mist)
KMCO 221813Z 26016G24KT 1SM R35L/2200VP6000FT +TSRA BR BKN033CB OVC050 23/22 A3011 RMK AO2 PK WND 28029/1756 WSHFT 1743 LTG DSNT ALQDS RAB1759 CONS LTGICCG ALQDS TS ALQDS MOV NE P0002 T02280217

Conditions at: KMCO observed 22 July 2017  18:03 UTC
Temperature: 23.9°C (75°F)
Dewpoint: 21.0°C (70°F) [RH = 84%]
Pressure (altimeter): 30.09 inches Hg (1019.0 mb)
Winds: from the W (280 degrees) at 23 MPH (20 knots; 10.4 m/s)
gusting to 33 MPH (29 knots; 15.1 m/s)
Visibility: 10 or more miles (16+ km)
Ceiling: 5000 feet AGL
Clouds: few clouds at 800 feet AGL
scattered clouds at 3300 feet AGL
broken clouds at 5000 feet AGL
broken clouds at 13000 feet AGL
Present Weather: -TSRA  (light rain associated with thunderstorm(s))
KMCO 221803Z COR 28020G29KT 10SM -TSRA FEW008 SCT033CB BKN050 BKN130 BKN250 24/21 A3009 RMK AO2 PK WND 28029/1756 WSHFT 1743 LTG DSNT ALQDS RAB1759 FRQ LTGICCG S-SW-NW TS S-SW-NW MOV NE TCU E TSB38 P0000 T0239021

Conditions at: KMCO observed 22 July 2017  17:53 UTC
Temperature: 26.1°C (79°F)
Dewpoint: 21.7°C (71°F) [RH = 77%]
Pressure (altimeter): 30.10 inches Hg (1019.4 mb)
[Sea-level pressure: 1019.0 mb]
Winds: from the W (280 degrees) at 24 MPH (21 knots; 10.9 m/s)
gusting to 37 MPH (32 knots; 16.6 m/s)
Visibility: 10 or more miles (16+ km)
Ceiling: 5000 feet AGL
Clouds: few clouds at 800 feet AGL
scattered clouds at 3300 feet AGL
broken clouds at 5000 feet AGL
broken clouds at 13000 feet AGL
Present Weather: TS  (thunderstorm)
KMCO 221753Z 28021G32KT 10SM TS FEW008 SCT033CB BKN050 BKN130 BKN250 26/22 A3010 RMK AO2 PK WND 27032/1749 LTG DSNT ALQDS SLP190 FRQ LTGICCG S-SW-NW TS S-SW-NW MOV NE TCU E VCSH S-SW-NW TSB38 T02610217 10322 20244 53003

Conditions at: KMCO observed 22 July 2017  17:38 UTC
Temperature: 32.2°C (90°F)
Dewpoint: 22.8°C (73°F) [RH = 58%]
Pressure (altimeter): 30.08 inches Hg (1018.7 mb)
Winds: from the SSW (210 degrees) at 9 MPH (8 knots; 4.2 m/s)
Visibility: 10 or more miles (16+ km)
Ceiling: 25000 feet AGL
Clouds: scattered clouds at 3300 feet AGL
scattered clouds at 5000 feet AGL
scattered clouds at 13000 feet AGL
broken clouds at 25000 feet AGL
Present Weather: TS  (thunderstorm)
KMCO 221738Z COR 21008KT 10SM TS SCT033CB SCT050 SCT130 BKN250 32/23 A3008 RMK AO2 LTG DSNT ALQDS TSB38 FRQ LTGICCG S-SW-NW TS S-SW-NW MOV NE TCU E VCSH S-SW-NW T03220228

Conditions at: KMCO observed 22 July 2017  16:53 UTC
Temperature: 31.1°C (88°F)
Dewpoint: 23.9°C (75°F) [RH = 66%]
Pressure (altimeter): 30.07 inches Hg (1018.4 mb)
[Sea-level pressure: 1018.1 mb]
Winds: from the S (180 degrees) at 10 MPH (9 knots; 4.7 m/s)
Visibility: 10 or more miles (16+ km)
Ceiling: 25000 feet AGL
Clouds: scattered clouds at 2800 feet AGL
scattered clouds at 4800 feet AGL
scattered clouds at 15000 feet AGL
broken clouds at 25000 feet AGL
Present Weather: no significant weather observed at this time
KMCO 221653Z 18009KT 10SM SCT028TCU SCT048 SCT150 BKN250 31/24 A3007 RMK AO2 LTG DSNT SW-NW SLP181 TCU E CB DSNT SW-NW MOV NE T03110239

Conditions at: KMCO observed 22 July 2017  15:53 UTC
Temperature: 29.4°C (85°F)
Dewpoint: 24.4°C (76°F) [RH = 75%]
Pressure (altimeter): 30.09 inches Hg (1019.0 mb)
[Sea-level pressure: 1018.7 mb]
Winds: from the SSW (210 degrees) at 9 MPH (8 knots; 4.2 m/s)
Visibility: 10 or more miles (16+ km)
Ceiling: 25000 feet AGL
Clouds: scattered clouds at 2400 feet AGL
scattered clouds at 6000 feet AGL
scattered clouds at 15000 feet AGL
broken clouds at 25000 feet AGL
Present Weather: no significant weather observed at this time
KMCO 221553Z 21008KT 10SM SCT024 SCT060 SCT150 BKN250 29/24 A3009 RMK AO2 LTG DSNT NW SLP187 CB DSNT W NW T02940244

Conditions at: KMCO observed 22 July 2017  14:53 UTC
Temperature: 28.9°C (84°F)
Dewpoint: 25.0°C (77°F) [RH = 80%]
Pressure (altimeter): 30.10 inches Hg (1019.4 mb)
[Sea-level pressure: 1019.1 mb]
Winds: from the SSW (200 degrees) at 9 MPH (8 knots; 4.2 m/s)
Visibility: 10 or more miles (16+ km)
Ceiling: at least 12,000 feet AGL
Clouds: scattered clouds at 2500 feet AGL
scattered clouds at 15000 feet AGL
scattered clouds at 25000 feet AGL
Present Weather: no significant weather observed at this time
KMCO 221453Z 20008KT 10SM SCT025 SCT150 SCT250 29/25 A3010 RMK AO2 SLP191 T02890250 50005

Conditions at: KMCO observed 22 July 2017  13:53 UTC
Temperature: 28.3°C (83°F)
Dewpoint: 25.6°C (78°F) [RH = 85%]
Pressure (altimeter): 30.10 inches Hg (1019.4 mb)
[Sea-level pressure: 1019.2 mb]
Winds: from the SSW (210 degrees) at 8 MPH (7 knots; 3.6 m/s)
Visibility: 10 or more miles (16+ km)
Ceiling: at least 12,000 feet AGL
Clouds: few clouds at 1300 feet AGL
few clouds at 2500 feet AGL
scattered clouds at 11000 feet AGL
scattered clouds at 25000 feet AGL
Present Weather: no significant weather observed at this time
KMCO 221353Z 21007KT 10SM FEW013 FEW025 SCT110 SCT250 28/26 A3010 RMK AO2 SLP192 T02830256

Conditions at: KMCO observed 22 July 2017  12:53 UTC
Temperature: 26.1°C (79°F)
Dewpoint: 26.1°C (79°F) [RH = 100%]
Pressure (altimeter): 30.10 inches Hg (1019.4 mb)
[Sea-level pressure: 1019.0 mb]
Winds: from the S (180 degrees) at 5 MPH (4 knots; 2.1 m/s)
Visibility: 10 or more miles (16+ km)
Ceiling: at least 12,000 feet AGL
Clouds: few clouds at 600 feet AGL
few clouds at 2000 feet AGL
few clouds at 10000 feet AGL
scattered clouds at 25000 feet AGL
Present Weather: no significant weather observed at this time
KMCO 221253Z 18004KT 10SM FEW006 FEW020 FEW100 SCT250 26/26 A3010 RMK AO2 SLP190 CB DSNT SW-W T02610261

Conditions at: KMCO observed 22 July 2017  12:20 UTC
Temperature: 25.6°C (78°F)
Dewpoint: 25.6°C (78°F) [RH = 100%]
Pressure (altimeter): 30.09 inches Hg (1019.0 mb)
Winds: from the S (190 degrees) at 5 MPH (4 knots; 2.1 m/s)
Visibility: 10 or more miles (16+ km)
Ceiling: at least 12,000 feet AGL
Clouds: few clouds at 400 feet AGL
few clouds at 2000 feet AGL
few clouds at 10000 feet AGL
scattered clouds at 25000 feet AGL
Present Weather: no significant weather observed at this time
KMCO 221220Z 19004KT 10SM FEW004 FEW020 FEW100 SCT250 26/26 A3009 RMK AO2 CB DSNT SW-W T02560256

Conditions at: KMCO observed 22 July 2017  11:53 UTC
Temperature: 24.4°C (76°F)
Dewpoint: 24.4°C (76°F) [RH = 100%]
Pressure (altimeter): 30.08 inches Hg (1018.7 mb)
[Sea-level pressure: 1018.6 mb]
Winds: calm
Visibility: 10 or more miles (16+ km)
Ceiling: at least 12,000 feet AGL
Clouds: few clouds at 2000 feet AGL
few clouds at 10000 feet AGL
scattered clouds at 25000 feet AGL
Present Weather: no significant weather observed at this time
KMCO 221153Z 00000KT 10SM FEW020 FEW100 SCT250 24/24 A3008 RMK AO2 SLP186 CB DSNT SW-W 70007 T02440244 10244 20222 51019

Conditions at: KMCO observed 22 July 2017  10:53 UTC
Temperature: 22.8°C (73°F)
Dewpoint: 22.8°C (73°F) [RH = 100%]
Pressure (altimeter): 30.06 inches Hg (1018.0 mb)
[Sea-level pressure: 1017.9 mb]
Winds: calm
Visibility: 10 or more miles (16+ km)
Ceiling: at least 12,000 feet AGL
Clouds: few clouds at 1800 feet AGL
few clouds at 10000 feet AGL
scattered clouds at 25000 feet AGL
Present Weather: BCFG  (patches of fog)
KMCO 221053Z 00000KT 10SM BCFG FEW018 FEW100 SCT250 23/23 A3006 RMK AO2 SLP179 T02280228

Conditions at: KMCO observed 22 July 2017  09:53 UTC
Temperature: 22.8°C (73°F)
Dewpoint: 22.8°C (73°F) [RH = 100%]
Pressure (altimeter): 30.05 inches Hg (1017.7 mb)
[Sea-level pressure: 1017.5 mb]
Winds: calm
Visibility: 9 miles (14 km)
Ceiling: at least 12,000 feet AGL
Clouds: scattered clouds at 20000 feet AGL
Present Weather: no significant weather observed at this time
KMCO 220953Z 00000KT 9SM SCT200 23/23 A3005 RMK AO2 SLP175 T02280228

Conditions at: KMCO observed 22 July 2017  08:53 UTC
Temperature: 22.8°C (73°F)
Dewpoint: 22.8°C (73°F) [RH = 100%]
Pressure (altimeter): 30.03 inches Hg (1017.0 mb)
[Sea-level pressure: 1016.7 mb]
Winds: from the SW (220 degrees) at 3 MPH (3 knots; 1.6 m/s)
Visibility: 10 or more miles (16+ km)
Ceiling: at least 12,000 feet AGL
Clouds: scattered clouds at 20000 feet AGL
Present Weather: no significant weather observed at this time
KMCO 220853Z 22003KT 10SM SCT200 23/23 A3003 RMK AO2 SLP167 T02280228 55009